createdAt,value
2022-08-07T00:01:43.965Z,99.90
2022-08-07T00:04:09.531Z,99.90
2022-08-07T00:06:45.496Z,99.90
2022-08-07T00:09:22.762Z,99.90
2022-08-07T00:11:55.839Z,99.90
2022-08-07T00:14:30.312Z,99.90
2022-08-07T00:16:59.156Z,99.90
2022-08-07T00:19:59.701Z,99.90
2022-08-07T00:22:24.738Z,99.90
2022-08-07T00:25:06.960Z,99.90
2022-08-07T00:27:35.795Z,99.90
2022-08-07T00:30:26.505Z,99.90
2022-08-07T00:32:55.095Z,99.90
2022-08-07T00:35:23.072Z,99.90
2022-08-07T00:37:50.144Z,99.90
2022-08-07T00:40:36.265Z,99.90
2022-08-07T00:43:09.538Z,99.90
2022-08-07T00:45:38.723Z,99.90
2022-08-07T00:48:18.260Z,99.90
2022-08-07T00:50:51.568Z,99.90
2022-08-07T00:53:20.257Z,99.90
2022-08-07T00:56:02.231Z,99.90
2022-08-07T00:58:30.602Z,99.90
2022-08-07T01:00:58.720Z,99.90
2022-08-07T01:03:55.393Z,99.90
2022-08-07T01:06:12.947Z,99.90
2022-08-07T01:08:51.383Z,99.90
2022-08-07T01:12:05.014Z,99.90
2022-08-07T01:14:08.165Z,99.90
2022-08-07T01:16:36.997Z,99.90
2022-08-07T01:19:04.981Z,99.90
2022-08-07T01:21:49.119Z,99.90
2022-08-07T01:24:21.229Z,99.90
2022-08-07T01:26:52.109Z,99.90
2022-08-07T01:29:20.319Z,99.90
2022-08-07T01:31:49.233Z,99.90
2022-08-07T01:34:18.718Z,99.90
2022-08-07T01:36:52.419Z,99.90
2022-08-07T01:39:19.898Z,99.90
2022-08-07T01:42:07.518Z,99.90
2022-08-07T01:44:34.676Z,99.90
2022-08-07T01:47:14.455Z,99.90
2022-08-07T01:49:41.556Z,99.90
2022-08-07T01:52:08.576Z,99.90
2022-08-07T01:54:39.167Z,99.90
2022-08-07T01:57:08.371Z,99.90
2022-08-07T01:59:52.063Z,99.90
2022-08-07T02:03:12.223Z,99.90
2022-08-07T02:05:15.973Z,99.90
2022-08-07T02:08:03.759Z,99.90
2022-08-07T02:10:31.944Z,99.90
2022-08-07T02:12:59.816Z,99.90
2022-08-07T02:15:28.254Z,99.90
2022-08-07T02:17:56.555Z,99.90
2022-08-07T02:20:24.484Z,99.90
2022-08-07T02:23:01.712Z,99.90
2022-08-07T02:26:30.570Z,99.90
2022-08-07T02:28:25.459Z,99.90
2022-08-07T02:30:54.507Z,99.90
2022-08-07T02:33:21.471Z,99.90
2022-08-07T02:36:28.182Z,99.90
2022-08-07T02:38:37.116Z,99.90
2022-08-07T02:41:04.402Z,99.90
2022-08-07T02:43:31.498Z,99.90
2022-08-07T02:46:01.676Z,99.90
2022-08-07T02:48:29.702Z,99.90
2022-08-07T02:50:56.559Z,99.90
2022-08-07T02:53:27.564Z,99.90
2022-08-07T02:56:02.157Z,99.90
2022-08-07T02:58:33.445Z,99.90
2022-08-07T03:01:00.687Z,99.90
2022-08-07T03:03:42.133Z,99.90
2022-08-07T03:06:25.981Z,99.90
2022-08-07T03:09:02.019Z,99.90
2022-08-07T03:11:28.883Z,99.90
2022-08-07T03:14:01.592Z,99.90
2022-08-07T03:16:30.401Z,99.90
2022-08-07T03:18:58.297Z,99.90
2022-08-07T03:21:25.395Z,99.90
2022-08-07T03:24:20.083Z,99.90
2022-08-07T03:26:50.995Z,99.90
2022-08-07T03:29:18.360Z,99.90
2022-08-07T03:31:49.742Z,99.90
2022-08-07T03:34:18.478Z,99.90
2022-08-07T03:36:50.381Z,99.90
2022-08-07T03:39:17.352Z,99.90
2022-08-07T03:42:05.127Z,99.90
2022-08-07T03:44:34.690Z,99.90
2022-08-07T03:47:13.708Z,99.90
2022-08-07T03:49:51.913Z,99.90
2022-08-07T03:52:22.750Z,99.90
2022-08-07T03:54:54.945Z,99.90
2022-08-07T03:58:33.298Z,99.90
2022-08-07T04:00:13.001Z,99.90
2022-08-07T04:02:43.191Z,99.90
2022-08-07T04:05:14.376Z,99.90
2022-08-07T04:07:46.672Z,99.90
2022-08-07T04:10:19.364Z,99.90
2022-08-07T04:12:47.433Z,99.90
2022-08-07T04:15:14.395Z,99.90
2022-08-07T04:18:31.243Z,99.90
2022-08-07T04:20:29.848Z,99.90
2022-08-07T04:23:01.996Z,99.90
2022-08-07T04:25:35.819Z,99.90
2022-08-07T04:28:10.362Z,99.90
2022-08-07T04:30:55.613Z,99.90
2022-08-07T04:33:24.466Z,99.90
2022-08-07T04:35:53.958Z,99.90
2022-08-07T04:38:21.367Z,99.90
2022-08-07T04:40:51.828Z,99.90
2022-08-07T04:44:10.488Z,99.90
2022-08-07T04:46:34.860Z,99.90
2022-08-07T04:49:30.344Z,99.90
2022-08-07T04:52:51.166Z,99.90
2022-08-07T04:58:09.900Z,99.90
2022-08-07T04:59:09.110Z,99.90
2022-08-07T05:01:31.965Z,99.90
2022-08-07T05:04:19.334Z,99.90
2022-08-07T05:06:55.621Z,99.90
2022-08-07T05:09:45.336Z,99.90
2022-08-07T05:12:27.092Z,99.90
2022-08-07T05:15:23.231Z,99.90
2022-08-07T05:17:57.763Z,99.90
2022-08-07T05:20:27.334Z,99.90
2022-08-07T05:22:54.980Z,99.90
2022-08-07T05:25:26.296Z,99.90
2022-08-07T05:28:20.133Z,99.90
2022-08-07T05:30:48.155Z,99.90
2022-08-07T05:33:18.070Z,99.90
2022-08-07T05:35:47.815Z,99.90
2022-08-07T05:39:00.332Z,99.90
2022-08-07T05:41:11.984Z,99.90
2022-08-07T05:43:50.059Z,99.90
2022-08-07T05:46:29.534Z,99.90
2022-08-07T05:48:58.430Z,99.90
2022-08-07T05:51:26.367Z,99.90
2022-08-07T05:54:13.719Z,99.90
2022-08-07T05:56:45.616Z,99.90
2022-08-07T05:59:19.341Z,99.90
2022-08-07T06:01:47.787Z,99.90
2022-08-07T06:04:15.273Z,99.90
2022-08-07T06:06:46.285Z,99.90
2022-08-07T06:09:15.671Z,99.90
2022-08-07T06:11:45.534Z,99.90
2022-08-07T06:14:20.822Z,99.90
2022-08-07T06:16:50.262Z,99.90
2022-08-07T06:19:52.005Z,99.90
2022-08-07T06:22:16.402Z,99.90
2022-08-07T06:24:58.159Z,99.90
2022-08-07T06:27:44.288Z,99.90
2022-08-07T06:30:24.230Z,99.90
2022-08-07T06:33:01.847Z,99.90
2022-08-07T06:35:45.318Z,99.90
2022-08-07T06:38:20.210Z,99.90
2022-08-07T06:40:50.111Z,99.90
2022-08-07T06:43:21.525Z,99.90
2022-08-07T06:45:49.331Z,99.90
2022-08-07T06:48:25.218Z,99.90
2022-08-07T06:50:53.026Z,99.90
2022-08-07T06:55:28.486Z,99.90
2022-08-07T06:56:15.343Z,99.90
2022-08-07T07:00:12.199Z,99.90
2022-08-07T07:01:33.275Z,99.90
2022-08-07T07:04:28.079Z,99.90
2022-08-07T07:07:01.053Z,99.90
2022-08-07T07:09:31.162Z,99.90
2022-08-07T07:12:15.650Z,99.90
2022-08-07T07:15:26.128Z,99.90
2022-08-07T07:18:02.235Z,99.90
2022-08-07T07:20:44.681Z,99.90
2022-08-07T07:24:06.451Z,99.90
2022-08-07T07:26:32.530Z,99.90
2022-08-07T07:29:57.152Z,99.90
2022-08-07T07:31:48.075Z,99.90
2022-08-07T07:34:18.645Z,99.90
2022-08-07T07:36:47.861Z,99.90
2022-08-07T07:39:22.191Z,99.90
2022-08-07T07:41:50.658Z,99.90
2022-08-07T07:44:35.988Z,99.90
2022-08-07T07:47:14.317Z,99.90
2022-08-07T07:50:34.945Z,99.90
2022-08-07T07:52:37.192Z,99.90
2022-08-07T07:55:07.541Z,99.90
2022-08-07T07:57:53.385Z,99.90
2022-08-07T08:00:29.521Z,99.90
2022-08-07T08:03:07.983Z,99.90
2022-08-07T08:05:50.786Z,99.90
2022-08-07T08:08:34.259Z,99.90
2022-08-07T08:11:08.185Z,99.90
2022-08-07T08:13:53.760Z,99.90
2022-08-07T08:16:26.561Z,99.90
2022-08-07T08:18:57.073Z,99.90
2022-08-07T08:21:55.731Z,99.90
2022-08-07T08:24:57.320Z,99.90
2022-08-07T08:27:36.926Z,99.90
2022-08-07T08:30:05.918Z,99.90
2022-08-07T08:32:38.514Z,99.90
2022-08-07T08:35:07.627Z,99.90
2022-08-07T08:38:01.361Z,99.90
2022-08-07T08:40:52.964Z,99.90
2022-08-07T08:43:42.768Z,99.90
2022-08-07T08:46:52.613Z,99.90
2022-08-07T08:49:46.445Z,99.90
2022-08-07T08:52:32.309Z,99.90
2022-08-07T08:55:21.205Z,99.90
2022-08-07T08:58:24.765Z,99.90
2022-08-07T09:01:14.990Z,99.90
2022-08-07T09:03:52.964Z,99.90
2022-08-07T09:06:33.516Z,99.90
2022-08-07T09:09:29.900Z,99.90
2022-08-07T09:12:32.260Z,99.90
2022-08-07T09:16:23.678Z,99.90
2022-08-07T09:18:33.576Z,99.90
2022-08-07T09:21:58.105Z,99.90
2022-08-07T09:24:58.904Z,99.90
2022-08-07T09:27:59.591Z,99.30
2022-08-07T09:30:56.289Z,99.20
2022-08-07T09:33:57.620Z,98.30
2022-08-07T09:36:49.552Z,98.30
2022-08-07T09:39:52.733Z,97.70
2022-08-07T09:42:17.301Z,98.10
2022-08-07T09:46:29.084Z,97.90
2022-08-07T09:48:05.261Z,98.20
2022-08-07T09:50:54.482Z,98.10
2022-08-07T09:53:22.596Z,96.80
2022-08-07T09:56:04.449Z,95.70
2022-08-07T09:59:14.025Z,96.30
2022-08-07T10:01:54.518Z,96.20
2022-08-07T10:04:55.027Z,95.30
2022-08-07T10:07:53.672Z,95.70
2022-08-07T10:10:31.301Z,94.80
2022-08-07T10:13:55.066Z,94.40
2022-08-07T10:16:23.167Z,94.00
2022-08-07T10:19:11.364Z,93.00
2022-08-07T10:22:16.237Z,91.80
2022-08-07T10:24:54.875Z,90.90
2022-08-07T10:27:46.350Z,89.30
2022-08-07T10:30:58.120Z,90.30
2022-08-07T10:34:06.483Z,86.60
2022-08-07T10:36:37.590Z,88.70
2022-08-07T10:39:41.432Z,87.30
2022-08-07T10:42:31.392Z,85.80
2022-08-07T10:45:19.373Z,87.70
2022-08-07T10:48:14.625Z,86.00
2022-08-07T10:50:49.814Z,87.10
2022-08-07T10:53:45.658Z,85.40
2022-08-07T10:56:31.162Z,85.30
2022-08-07T10:59:21.581Z,85.20
2022-08-07T11:02:04.668Z,83.00
2022-08-07T11:04:46.472Z,82.90
2022-08-07T11:07:58.474Z,83.60
2022-08-07T11:10:52.300Z,82.20
2022-08-07T11:14:42.765Z,82.50
2022-08-07T11:16:29.844Z,81.40
2022-08-07T11:19:00.775Z,79.50
2022-08-07T11:21:33.711Z,80.90
2022-08-07T11:24:35.193Z,81.60
2022-08-07T11:28:00.768Z,78.50
2022-08-07T11:30:19.257Z,79.50
2022-08-07T11:33:01.803Z,79.90
2022-08-07T11:35:36.548Z,78.30
2022-08-07T11:38:52.489Z,77.70
2022-08-07T11:41:31.029Z,77.30
2022-08-07T11:44:35.089Z,77.30
2022-08-07T11:47:12.686Z,77.30
2022-08-07T11:50:18.760Z,75.00
2022-08-07T11:52:50.206Z,76.20
2022-08-07T11:56:09.620Z,74.10
2022-08-07T11:59:03.271Z,75.70
2022-08-07T12:02:30.370Z,74.00
2022-08-07T12:05:02.580Z,72.90
2022-08-07T12:08:04.155Z,74.20
2022-08-07T12:11:20.223Z,72.90
2022-08-07T12:13:57.113Z,71.40
2022-08-07T12:16:33.270Z,71.20
2022-08-07T12:19:22.024Z,70.90
2022-08-07T12:22:36.088Z,69.60
2022-08-07T12:26:00.907Z,69.90
2022-08-07T12:28:03.993Z,71.20
2022-08-07T12:30:37.729Z,69.80
2022-08-07T12:33:23.294Z,69.30
2022-08-07T12:35:59.091Z,69.00
2022-08-07T12:38:42.653Z,68.30
2022-08-07T12:41:11.104Z,68.70
2022-08-07T12:44:01.889Z,69.20
2022-08-07T12:47:21.375Z,70.00
2022-08-07T12:50:34.428Z,67.10
2022-08-07T12:53:27.769Z,69.00
2022-08-07T12:56:12.733Z,68.20
2022-08-07T12:58:46.873Z,68.20
2022-08-07T13:01:32.468Z,68.70
2022-08-07T13:04:34.352Z,68.40
2022-08-07T13:08:14.674Z,69.60
2022-08-07T13:10:52.252Z,67.50
2022-08-07T13:13:50.446Z,68.20
2022-08-07T13:16:54.896Z,67.90
2022-08-07T13:19:50.886Z,67.70
2022-08-07T13:22:33.170Z,67.20
2022-08-07T13:25:30.656Z,67.00
2022-08-07T13:28:13.454Z,65.70
2022-08-07T13:30:48.949Z,67.10
2022-08-07T13:34:33.503Z,66.00
2022-08-07T13:36:31.034Z,65.50
2022-08-07T13:39:11.124Z,65.40
2022-08-07T13:41:47.383Z,66.00
2022-08-07T13:44:17.927Z,66.10
2022-08-07T13:46:57.590Z,65.20
2022-08-07T13:50:33.461Z,65.20
2022-08-07T13:52:26.510Z,65.20
2022-08-07T13:55:07.183Z,65.20
2022-08-07T13:57:39.710Z,65.30
2022-08-07T14:00:39.704Z,64.80
2022-08-07T14:03:29.991Z,65.00
2022-08-07T14:06:14.175Z,65.60
2022-08-07T14:08:53.428Z,65.30
2022-08-07T14:11:22.017Z,64.50
2022-08-07T14:13:55.971Z,64.50
2022-08-07T14:16:31.283Z,63.80
2022-08-07T14:18:58.367Z,63.80
2022-08-07T14:22:01.419Z,63.80
2022-08-07T14:24:28.258Z,63.40
2022-08-07T14:28:11.255Z,63.90
2022-08-07T14:30:07.854Z,63.50
2022-08-07T14:32:48.685Z,65.10
2022-08-07T14:35:42.802Z,64.40
2022-08-07T14:38:24.766Z,64.10
2022-08-07T14:40:57.673Z,63.70
2022-08-07T14:46:12.655Z,63.30
2022-08-07T14:48:44.430Z,63.50
2022-08-07T14:51:19.869Z,63.70
2022-08-07T14:54:05.781Z,63.30
2022-08-07T14:56:33.645Z,63.60
2022-08-07T14:59:13.460Z,63.70
2022-08-07T15:01:58.544Z,62.80
2022-08-07T15:04:25.738Z,63.60
2022-08-07T15:06:55.894Z,64.30
2022-08-07T15:15:21.370Z,63.20
2022-08-07T15:17:57.401Z,63.20
2022-08-07T15:20:33.338Z,63.10
2022-08-07T15:23:20.129Z,63.00
2022-08-07T15:25:53.794Z,62.90
2022-08-07T15:28:35.216Z,62.30
2022-08-07T15:31:08.516Z,62.70
2022-08-07T15:33:36.873Z,62.60
2022-08-07T15:36:05.738Z,62.50
2022-08-07T15:42:43.772Z,63.00
2022-08-07T15:44:13.180Z,62.70
2022-08-07T15:50:05.298Z,63.10
2022-08-07T15:52:21.940Z,63.00
2022-08-07T15:55:02.648Z,63.40
2022-08-07T15:57:47.615Z,62.90
2022-08-07T16:00:31.579Z,62.40
2022-08-07T16:03:02.900Z,62.40
2022-08-07T16:05:31.430Z,62.20
2022-08-07T16:08:31.291Z,62.20
2022-08-07T16:11:04.266Z,61.70
2022-08-07T16:13:58.817Z,61.60
2022-08-07T16:16:47.809Z,62.00
2022-08-07T16:19:42.149Z,61.30
2022-08-07T16:22:36.333Z,61.10
2022-08-07T16:25:52.404Z,60.30
2022-08-07T16:30:07.299Z,60.10
2022-08-07T16:31:51.183Z,60.30
2022-08-07T16:34:36.969Z,60.70
2022-08-07T16:38:05.455Z,60.60
2022-08-07T16:40:28.653Z,60.60
2022-08-07T16:43:06.969Z,60.80
2022-08-07T16:46:40.485Z,59.60
2022-08-07T16:50:20.404Z,59.70
2022-08-07T16:52:51.273Z,59.40
2022-08-07T16:55:15.011Z,59.20
2022-08-07T16:58:01.996Z,58.70
2022-08-07T17:00:40.467Z,58.80
2022-08-07T17:03:18.190Z,58.80
2022-08-07T17:06:28.926Z,58.70
2022-08-07T17:09:10.619Z,58.60
2022-08-07T17:12:01.402Z,58.30
2022-08-07T17:14:47.652Z,58.40
2022-08-07T17:17:44.536Z,59.10
2022-08-07T17:20:21.494Z,58.50
2022-08-07T17:23:02.833Z,58.50
2022-08-07T17:26:00.241Z,58.40
2022-08-07T17:28:38.291Z,58.50
2022-08-07T17:31:21.172Z,58.80
2022-08-07T17:34:34.889Z,58.30
2022-08-07T17:37:09.715Z,57.50
2022-08-07T17:40:30.207Z,58.10
2022-08-07T17:43:14.986Z,57.10
2022-08-07T17:46:16.010Z,56.90
2022-08-07T17:49:10.826Z,57.20
2022-08-07T17:51:49.685Z,57.00
2022-08-07T17:54:39.938Z,57.10
2022-08-07T17:57:58.387Z,56.70
2022-08-07T18:00:32.974Z,56.40
2022-08-07T18:03:01.476Z,57.10
2022-08-07T18:06:01.909Z,57.10
2022-08-07T18:08:33.212Z,56.50
2022-08-07T18:12:17.490Z,56.90
2022-08-07T18:14:23.670Z,56.40
2022-08-07T18:18:45.695Z,56.20
2022-08-07T18:21:09.616Z,56.10
2022-08-07T18:23:42.727Z,56.90
2022-08-07T18:26:03.895Z,56.30
2022-08-07T18:30:07.510Z,56.60
2022-08-07T18:32:16.899Z,56.60
2022-08-07T18:35:21.167Z,56.40
2022-08-07T18:38:57.755Z,56.60
2022-08-07T18:41:09.250Z,56.30
2022-08-07T18:44:08.886Z,56.70
2022-08-07T18:46:35.713Z,56.40
2022-08-07T18:50:29.845Z,56.90
2022-08-07T18:52:53.162Z,56.50
2022-08-07T18:55:55.788Z,56.70
2022-08-07T18:59:07.871Z,56.60
2022-08-07T19:02:36.410Z,56.20
2022-08-07T19:06:02.578Z,56.60
2022-08-07T19:08:19.293Z,56.60
2022-08-07T19:10:52.765Z,56.90
2022-08-07T19:13:50.162Z,56.80
2022-08-07T19:17:06.549Z,57.00
2022-08-07T19:19:38.230Z,57.20
2022-08-07T19:22:30.757Z,57.30
2022-08-07T19:24:58.543Z,57.30
2022-08-07T19:28:29.327Z,57.60
2022-08-07T19:31:03.915Z,57.80
2022-08-07T19:33:15.627Z,57.90
2022-08-07T19:35:46.691Z,58.30
2022-08-07T19:38:15.821Z,58.30
2022-08-07T19:40:50.781Z,58.50
2022-08-07T19:43:48.888Z,59.00
2022-08-07T19:46:19.246Z,58.90
2022-08-07T19:48:53.456Z,59.10
2022-08-07T19:51:51.221Z,59.20
2022-08-07T19:54:33.986Z,59.30
2022-08-07T19:57:51.707Z,59.40
2022-08-07T19:59:46.870Z,59.70
2022-08-07T20:02:19.716Z,59.90
2022-08-07T20:04:49.269Z,60.70
2022-08-07T20:07:23.761Z,60.20
2022-08-07T20:10:37.290Z,60.30
2022-08-07T20:12:43.062Z,60.60
2022-08-07T20:15:18.959Z,60.80
2022-08-07T20:17:56.215Z,61.00
2022-08-07T20:20:30.341Z,61.50
2022-08-07T20:23:01.415Z,61.50
2022-08-07T20:25:40.295Z,61.80
2022-08-07T20:28:18.084Z,62.30
2022-08-07T20:30:47.110Z,62.20
2022-08-07T20:33:36.731Z,63.20
2022-08-07T20:36:05.179Z,63.20
2022-08-07T20:38:32.754Z,63.30
2022-08-07T20:41:03.807Z,63.50
2022-08-07T20:43:33.066Z,64.60
2022-08-07T20:46:26.613Z,65.00
2022-08-07T20:48:58.171Z,65.20
2022-08-07T20:51:40.622Z,66.30
2022-08-07T20:54:30.127Z,66.80
2022-08-07T20:57:01.335Z,67.80
2022-08-07T21:00:07.166Z,68.10
2022-08-07T21:02:38.230Z,68.60
2022-08-07T21:05:16.083Z,68.70
2022-08-07T21:07:43.657Z,69.70
2022-08-07T21:10:29.863Z,70.20
2022-08-07T21:13:00.852Z,70.70
2022-08-07T21:15:58.157Z,71.20
2022-08-07T21:18:25.646Z,72.70
2022-08-07T21:20:57.027Z,71.80
2022-08-07T21:24:04.086Z,72.30
2022-08-07T21:27:00.531Z,73.90
2022-08-07T21:29:33.392Z,74.50
2022-08-07T21:32:47.704Z,74.20
2022-08-07T21:35:05.900Z,75.00
2022-08-07T21:37:59.488Z,75.20
2022-08-07T21:40:50.405Z,75.80
2022-08-07T21:43:55.114Z,77.40
2022-08-07T21:46:33.182Z,78.90
2022-08-07T21:49:15.169Z,78.50
2022-08-07T21:52:04.197Z,78.80
2022-08-07T21:54:48.685Z,80.50
2022-08-07T21:57:44.433Z,80.50
2022-08-07T22:00:22.102Z,81.70
2022-08-07T22:02:59.216Z,81.70
2022-08-07T22:05:45.558Z,81.40
2022-08-07T22:08:14.494Z,82.00
2022-08-07T22:10:49.692Z,82.50
2022-08-07T22:13:17.234Z,83.40
2022-08-07T22:16:45.004Z,84.10
2022-08-07T22:19:29.465Z,84.90
2022-08-07T22:22:21.508Z,87.00
2022-08-07T22:25:08.167Z,87.00
2022-08-07T22:28:29.704Z,87.50
2022-08-07T22:30:22.148Z,90.20
2022-08-07T22:32:58.640Z,89.30
2022-08-07T22:35:39.410Z,90.30
2022-08-07T22:38:25.723Z,90.70
2022-08-07T22:41:09.986Z,92.00
2022-08-07T22:43:39.783Z,92.40
2022-08-07T22:47:02.782Z,92.70
2022-08-07T22:49:23.356Z,93.90
2022-08-07T22:52:11.517Z,94.80
2022-08-07T22:55:14.754Z,94.90
2022-08-07T22:57:51.010Z,96.10
2022-08-07T23:00:32.361Z,96.30
2022-08-07T23:03:58.170Z,97.10
2022-08-07T23:06:52.077Z,98.00
2022-08-07T23:10:06.080Z,98.60
2022-08-07T23:12:43.197Z,98.70
2022-08-07T23:16:07.350Z,99.50
2022-08-07T23:18:26.835Z,99.90
2022-08-07T23:21:17.801Z,99.90
2022-08-07T23:24:27.850Z,99.90
2022-08-07T23:27:01.339Z,99.90
2022-08-07T23:30:38.934Z,99.90
2022-08-07T23:34:34.963Z,99.90
2022-08-07T23:35:57.395Z,99.90
2022-08-07T23:38:47.478Z,99.90
2022-08-07T23:42:04.337Z,99.90
2022-08-07T23:44:32.449Z,99.90
2022-08-07T23:47:20.460Z,99.90
2022-08-07T23:50:07.728Z,99.90
2022-08-07T23:53:01.039Z,99.90
2022-08-07T23:55:53.135Z,99.90
2022-08-07T23:58:45.222Z,99.90
